sensor_id;sensor_type;location;lat;lon;timestamp;pressure;altitude;pressure_sealevel;temperature;humidity
53659;BME280;41524;35.624;139.698;2023-04-20T00:00:21;101027.00;;;21.61;49.90
53659;BME280;41524;35.624;139.698;2023-04-20T00:05:15;101025.00;;;20.59;52.80
53659;BME280;41524;35.624;139.698;2023-04-20T00:10:16;101015.00;;;22.14;48.06
53659;BME280;41524;35.624;139.698;2023-04-20T00:15:11;101006.00;;;21.30;49.93
53659;BME280;41524;35.624;139.698;2023-04-20T00:20:11;101003.00;;;19.85;52.98
53659;BME280;41524;35.624;139.698;2023-04-20T00:25:11;100996.00;;;20.88;50.76
53659;BME280;41524;35.624;139.698;2023-04-20T00:30:15;101006.00;;;20.83;50.87
53659;BME280;41524;35.624;139.698;2023-04-20T00:35:15;101010.00;;;19.03;52.94
53659;BME280;41524;35.624;139.698;2023-04-20T00:40:12;101018.00;;;19.17;53.49
53659;BME280;41524;35.624;139.698;2023-04-20T00:45:11;101007.00;;;19.22;53.40
53659;BME280;41524;35.624;139.698;2023-04-20T00:50:13;100993.00;;;20.29;52.56
53659;BME280;41524;35.624;139.698;2023-04-20T00:55:11;100985.00;;;20.20;52.14
53659;BME280;41524;35.624;139.698;2023-04-20T01:00:16;100980.00;;;21.53;49.71
53659;BME280;41524;35.624;139.698;2023-04-20T01:05:18;100974.00;;;20.10;51.31
53659;BME280;41524;35.624;139.698;2023-04-20T01:10:10;100974.00;;;20.60;50.59
53659;BME280;41524;35.624;139.698;2023-04-20T01:15:18;100978.00;;;19.22;53.80
53659;BME280;41524;35.624;139.698;2023-04-20T01:20:11;100969.00;;;21.07;50.60
53659;BME280;41524;35.624;139.698;2023-04-20T01:25:15;100957.00;;;20.56;50.42
53659;BME280;41524;35.624;139.698;2023-04-20T01:30:16;100961.00;;;19.97;51.84
53659;BME280;41524;35.624;139.698;2023-04-20T01:35:15;100951.00;;;21.34;50.36
53659;BME280;41524;35.624;139.698;2023-04-20T01:40:13;100953.00;;;21.11;50.54
53659;BME280;41524;35.624;139.698;2023-04-20T01:45:16;100954.00;;;20.31;52.21
53659;BME280;41524;35.624;139.698;2023-04-20T01:50:24;100943.00;;;20.90;51.71
53659;BME280;41524;35.624;139.698;2023-04-20T01:55:11;100940.00;;;20.10;51.39
53659;BME280;41524;35.624;139.698;2023-04-20T02:00:12;100934.00;;;19.34;53.63
53659;BME280;41524;35.624;139.698;2023-04-20T02:05:11;100923.00;;;20.25;51.15
53659;BME280;41524;35.624;139.698;2023-04-20T02:10:15;100915.00;;;21.22;50.48
53659;BME280;41524;35.624;139.698;2023-04-20T02:15:16;100922.00;;;21.51;49.26
53659;BME280;41524;35.624;139.698;2023-04-20T02:20:18;100919.00;;;19.86;50.80
53659;BME280;41524;35.624;139.698;2023-04-20T02:25:16;100900.00;;;20.40;50.12
53659;BME280;41524;35.624;139.698;2023-04-20T02:30:12;100888.00;;;20.26;50.23
53659;BME280;41524;35.624;139.698;2023-04-20T02:35:10;100882.00;;;21.38;47.01
53659;BME280;41524;35.624;139.698;2023-04-20T02:40:11;100874.00;;;21.94;46.03
53659;BME280;41524;35.624;139.698;2023-04-20T02:45:16;100856.00;;;20.57;48.11
53659;BME280;41524;35.624;139.698;2023-04-20T02:50:12;100845.00;;;20.71;46.47
53659;BME280;41524;35.624;139.698;2023-04-20T02:55:13;100825.00;;;21.39;46.95
53659;BME280;41524;35.624;139.698;2023-04-20T03:00:12;100814.00;;;21.52;46.18
53659;BME280;41524;35.624;139.698;2023-04-20T03:05:11;100809.00;;;22.42;45.44
53659;BME280;41524;35.624;139.698;2023-04-20T03:10:16;100806.00;;;20.65;46.74
53659;BME280;41524;35.624;139.698;2023-04-20T03:15:15;100786.00;;;23.60;42.35
53659;BME280;41524;35.624;139.698;2023-04-20T03:20:11;100778.00;;;21.71;41.50
53659;BME280;41524;35.624;139.698;2023-04-20T03:25:10;100769.00;;;21.34;43.50
53659;BME280;41524;35.624;139.698;2023-04-20T03:30:16;100760.00;;;21.04;41.60
53659;BME280;41524;35.624;139.698;2023-04-20T03:35:11;100747.00;;;22.51;40.96
53659;BME280;41524;35.624;139.698;2023-04-20T03:40:12;100751.00;;;20.72;43.60
53659;BME280;41524;35.624;139.698;2023-04-20T03:45:12;100757.00;;;21.57;41.63
53659;BME280;41524;35.624;139.698;2023-04-20T03:50:10;100745.00;;;21.43;42.61
53659;BME280;41524;35.624;139.698;2023-04-20T03:55:11;100747.00;;;20.84;43.07
53659;BME280;41524;35.624;139.698;2023-04-20T04:00:13;100740.00;;;21.42;43.06
53659;BME280;41524;35.624;139.698;2023-04-20T04:05:11;100733.00;;;20.65;44.32
53659;BME280;41524;35.624;139.698;2023-04-20T04:10:14;100722.00;;;21.37;43.10
53659;BME280;41524;35.624;139.698;2023-04-20T04:15:16;100719.00;;;22.91;41.64
53659;BME280;41524;35.624;139.698;2023-04-20T04:20:11;100725.00;;;21.73;42.52
53659;BME280;41524;35.624;139.698;2023-04-20T04:25:16;100716.00;;;22.46;43.59
53659;BME280;41524;35.624;139.698;2023-04-20T04:30:12;100696.00;;;22.06;43.94
53659;BME280;41524;35.624;139.698;2023-04-20T04:35:13;100687.00;;;22.05;43.93
53659;BME280;41524;35.624;139.698;2023-04-20T04:40:12;100689.00;;;22.62;43.42
53659;BME280;41524;35.624;139.698;2023-04-20T04:45:12;100667.00;;;21.73;44.89
53659;BME280;41524;35.624;139.698;2023-04-20T04:50:15;100651.00;;;22.08;43.78
53659;BME280;41524;35.624;139.698;2023-04-20T04:55:11;100653.00;;;21.92;44.78
53659;BME280;41524;35.624;139.698;2023-04-20T05:00:12;100644.00;;;21.87;44.82
53659;BME280;41524;35.624;139.698;2023-04-20T05:05:10;100640.00;;;22.06;44.07
53659;BME280;41524;35.624;139.698;2023-04-20T05:10:11;100632.00;;;21.68;44.49
53659;BME280;41524;35.624;139.698;2023-04-20T05:15:16;100620.00;;;22.83;42.71
53659;BME280;41524;35.624;139.698;2023-04-20T05:20:15;100624.00;;;21.17;44.92
53659;BME280;41524;35.624;139.698;2023-04-20T05:25:11;100618.00;;;22.15;43.83
53659;BME280;41524;35.624;139.698;2023-04-20T05:30:12;100603.00;;;20.98;45.90
53659;BME280;41524;35.624;139.698;2023-04-20T05:35:11;100622.00;;;21.16;46.15
53659;BME280;41524;35.624;139.698;2023-04-20T05:40:16;100606.00;;;22.19;44.80
53659;BME280;41524;35.624;139.698;2023-04-20T05:45:16;100604.00;;;21.74;47.05
53659;BME280;41524;35.624;139.698;2023-04-20T05:50:11;100605.00;;;21.90;47.29
53659;BME280;41524;35.624;139.698;2023-04-20T05:55:10;100600.00;;;21.63;47.84
53659;BME280;41524;35.624;139.698;2023-04-20T06:00:12;100599.00;;;21.56;47.69
53659;BME280;41524;35.624;139.698;2023-04-20T06:05:16;100592.00;;;21.03;48.87
53659;BME280;41524;35.624;139.698;2023-04-20T06:10:17;100591.00;;;21.43;48.66
53659;BME280;41524;35.624;139.698;2023-04-20T06:15:11;100582.00;;;21.37;47.73
53659;BME280;41524;35.624;139.698;2023-04-20T06:20:15;100578.00;;;21.21;48.91
53659;BME280;41524;35.624;139.698;2023-04-20T06:25:18;100572.00;;;21.49;48.22
53659;BME280;41524;35.624;139.698;2023-04-20T06:30:14;100561.00;;;21.10;48.95
53659;BME280;41524;35.624;139.698;2023-04-20T06:35:10;100540.00;;;21.86;47.66
53659;BME280;41524;35.624;139.698;2023-04-20T06:40:11;100550.00;;;20.92;49.52
53659;BME280;41524;35.624;139.698;2023-04-20T06:45:12;100539.00;;;20.99;50.02
53659;BME280;41524;35.624;139.698;2023-04-20T06:50:12;100545.00;;;21.61;49.37
53659;BME280;41524;35.624;139.698;2023-04-20T06:55:10;100556.00;;;20.77;50.56
53659;BME280;41524;35.624;139.698;2023-04-20T07:00:12;100557.00;;;20.64;51.42
53659;BME280;41524;35.624;139.698;2023-04-20T07:05:17;100550.00;;;21.41;50.57
53659;BME280;41524;35.624;139.698;2023-04-20T07:10:12;100541.00;;;20.19;52.03
53659;BME280;41524;35.624;139.698;2023-04-20T07:15:12;100543.00;;;20.69;52.18
53659;BME280;41524;35.624;139.698;2023-04-20T07:20:15;100538.00;;;21.01;52.07
53659;BME280;41524;35.624;139.698;2023-04-20T07:25:20;100537.00;;;21.39;51.44
53659;BME280;41524;35.624;139.698;2023-04-20T07:30:17;100537.00;;;20.87;53.10
53659;BME280;41524;35.624;139.698;2023-04-20T07:35:12;100539.00;;;21.14;53.01
53659;BME280;41524;35.624;139.698;2023-04-20T07:40:12;100532.00;;;19.93;56.49
53659;BME280;41524;35.624;139.698;2023-04-20T07:45:12;100533.00;;;19.88;56.63
53659;BME280;41524;35.624;139.698;2023-04-20T07:50:17;100532.00;;;19.52;58.31
53659;BME280;41524;35.624;139.698;2023-04-20T07:55:16;100528.00;;;19.83;58.39
53659;BME280;41524;35.624;139.698;2023-04-20T08:00:17;100535.00;;;19.70;59.62
53659;BME280;41524;35.624;139.698;2023-04-20T08:05:15;100537.00;;;19.26;60.37
53659;BME280;41524;35.624;139.698;2023-04-20T08:10:16;100535.00;;;18.96;60.91
53659;BME280;41524;35.624;139.698;2023-04-20T08:15:12;100527.00;;;19.85;58.39
53659;BME280;41524;35.624;139.698;2023-04-20T08:20:10;100531.00;;;19.21;59.58
53659;BME280;41524;35.624;139.698;2023-04-20T08:25:15;100532.00;;;19.32;59.77
53659;BME280;41524;35.624;139.698;2023-04-20T08:30:19;100540.00;;;20.26;57.75
53659;BME280;41524;35.624;139.698;2023-04-20T08:35:20;100548.00;;;19.57;59.16
53659;BME280;41524;35.624;139.698;2023-04-20T08:40:21;100557.00;;;19.19;60.00
53659;BME280;41524;35.624;139.698;2023-04-20T08:45:11;100556.00;;;19.43;59.44
53659;BME280;41524;35.624;139.698;2023-04-20T08:50:18;100557.00;;;18.96;60.58
53659;BME280;41524;35.624;139.698;2023-04-20T08:55:13;100566.00;;;19.77;59.05
53659;BME280;41524;35.624;139.698;2023-04-20T09:00:11;100574.00;;;19.02;60.82
53659;BME280;41524;35.624;139.698;2023-04-20T09:05:11;100568.00;;;18.99;60.41
53659;BME280;41524;35.624;139.698;2023-04-20T09:10:10;100572.00;;;19.30;58.80
53659;BME280;41524;35.624;139.698;2023-04-20T09:15:26;100574.00;;;18.18;61.54
53659;BME280;41524;35.624;139.698;2023-04-20T09:20:12;100572.00;;;19.34;59.43
53659;BME280;41524;35.624;139.698;2023-04-20T09:25:14;100569.00;;;19.20;59.21
53659;BME280;41524;35.624;139.698;2023-04-20T09:30:11;100570.00;;;18.70;60.66
53659;BME280;41524;35.624;139.698;2023-04-20T09:35:27;100574.00;;;17.90;62.71
53659;BME280;41524;35.624;139.698;2023-04-20T09:40:11;100561.00;;;18.66;61.09
53659;BME280;41524;35.624;139.698;2023-04-20T09:45:16;100571.00;;;18.60;60.82
53659;BME280;41524;35.624;139.698;2023-04-20T09:50:12;100576.00;;;18.47;61.25
53659;BME280;41524;35.624;139.698;2023-04-20T09:55:15;100571.00;;;18.41;61.37
53659;BME280;41524;35.624;139.698;2023-04-20T10:00:16;100566.00;;;18.25;61.01
53659;BME280;41524;35.624;139.698;2023-04-20T10:05:15;100572.00;;;17.99;61.62
53659;BME280;41524;35.624;139.698;2023-04-20T10:10:16;100571.00;;;18.65;60.21
53659;BME280;41524;35.624;139.698;2023-04-20T10:15:22;100582.00;;;18.46;60.14
53659;BME280;41524;35.624;139.698;2023-04-20T10:20:21;100584.00;;;17.91;60.93
53659;BME280;41524;35.624;139.698;2023-04-20T10:25:16;100585.00;;;18.36;60.20
53659;BME280;41524;35.624;139.698;2023-04-20T10:30:11;100596.00;;;17.99;60.48
53659;BME280;41524;35.624;139.698;2023-04-20T10:35:11;100599.00;;;17.89;61.34
53659;BME280;41524;35.624;139.698;2023-04-20T10:40:24;100595.00;;;18.39;60.15
53659;BME280;41524;35.624;139.698;2023-04-20T10:45:11;100603.00;;;18.14;60.66
53659;BME280;41524;35.624;139.698;2023-04-20T10:50:18;100606.00;;;18.23;60.30
53659;BME280;41524;35.624;139.698;2023-04-20T10:55:24;100614.00;;;18.12;60.58
53659;BME280;41524;35.624;139.698;2023-04-20T11:00:18;100616.00;;;18.33;60.14
53659;BME280;41524;35.624;139.698;2023-04-20T11:05:12;100629.00;;;18.34;60.33
53659;BME280;41524;35.624;139.698;2023-04-20T11:10:10;100624.00;;;18.35;59.62
53659;BME280;41524;35.624;139.698;2023-04-20T11:15:12;100632.00;;;18.41;60.08
53659;BME280;41524;35.624;139.698;2023-04-20T11:20:17;100637.00;;;18.10;61.02
53659;BME280;41524;35.624;139.698;2023-04-20T11:25:12;100650.00;;;17.70;62.00
53659;BME280;41524;35.624;139.698;2023-04-20T11:30:11;100642.00;;;18.06;61.47
53659;BME280;41524;35.624;139.698;2023-04-20T11:35:10;100644.00;;;17.63;61.99
53659;BME280;41524;35.624;139.698;2023-04-20T11:40:16;100638.00;;;17.70;62.08
53659;BME280;41524;35.624;139.698;2023-04-20T11:45:16;100650.00;;;17.49;63.24
53659;BME280;41524;35.624;139.698;2023-04-20T11:50:11;100656.00;;;17.31;63.71
53659;BME280;41524;35.624;139.698;2023-04-20T11:55:20;100655.00;;;17.47;62.84
53659;BME280;41524;35.624;139.698;2023-04-20T12:00:12;100655.00;;;17.71;62.02
53659;BME280;41524;35.624;139.698;2023-04-20T12:05:17;100660.00;;;17.63;62.00
53659;BME280;41524;35.624;139.698;2023-04-20T12:10:16;100654.00;;;17.68;61.51
53659;BME280;41524;35.624;139.698;2023-04-20T12:15:15;100659.00;;;17.56;61.63
53659;BME280;41524;35.624;139.698;2023-04-20T12:20:17;100647.00;;;18.08;60.00
53659;BME280;41524;35.624;139.698;2023-04-20T12:25:16;100665.00;;;17.59;61.02
53659;BME280;41524;35.624;139.698;2023-04-20T12:30:11;100667.00;;;17.21;61.47
53659;BME280;41524;35.624;139.698;2023-04-20T12:35:16;100660.00;;;17.42;61.60
53659;BME280;41524;35.624;139.698;2023-04-20T12:40:15;100652.00;;;17.30;61.52
53659;BME280;41524;35.624;139.698;2023-04-20T12:45:17;100664.00;;;17.17;61.37
53659;BME280;41524;35.624;139.698;2023-04-20T12:50:11;100666.00;;;17.94;59.45
53659;BME280;41524;35.624;139.698;2023-04-20T12:55:16;100665.00;;;17.83;59.54
53659;BME280;41524;35.624;139.698;2023-04-20T13:00:16;100671.00;;;17.17;61.47
53659;BME280;41524;35.624;139.698;2023-04-20T13:05:11;100665.00;;;17.22;61.38
53659;BME280;41524;35.624;139.698;2023-04-20T13:10:16;100668.00;;;17.35;60.55
53659;BME280;41524;35.624;139.698;2023-04-20T13:15:16;100680.00;;;17.41;60.21
53659;BME280;41524;35.624;139.698;2023-04-20T13:20:12;100684.00;;;17.46;59.90
53659;BME280;41524;35.624;139.698;2023-04-20T13:25:12;100690.00;;;17.33;60.29
53659;BME280;41524;35.624;139.698;2023-04-20T13:30:13;100691.00;;;17.04;61.39
53659;BME280;41524;35.624;139.698;2023-04-20T13:35:12;100694.00;;;16.90;61.98
53659;BME280;41524;35.624;139.698;2023-04-20T13:40:11;100691.00;;;17.09;61.28
53659;BME280;41524;35.624;139.698;2023-04-20T13:45:21;100685.00;;;17.00;62.00
53659;BME280;41524;35.624;139.698;2023-04-20T13:50:11;100688.00;;;17.00;62.16
53659;BME280;41524;35.624;139.698;2023-04-20T13:55:16;100686.00;;;17.40;61.41
53659;BME280;41524;35.624;139.698;2023-04-20T14:00:15;100679.00;;;16.78;62.49
53659;BME280;41524;35.624;139.698;2023-04-20T14:05:17;100679.00;;;16.81;62.73
53659;BME280;41524;35.624;139.698;2023-04-20T14:10:21;100676.00;;;17.26;61.66
53659;BME280;41524;35.624;139.698;2023-04-20T14:15:13;100676.00;;;16.77;62.92
53659;BME280;41524;35.624;139.698;2023-04-20T14:20:13;100679.00;;;16.86;62.94
53659;BME280;41524;35.624;139.698;2023-04-20T14:25:11;100677.00;;;17.36;62.02
53659;BME280;41524;35.624;139.698;2023-04-20T14:30:12;100674.00;;;17.08;63.19
53659;BME280;41524;35.624;139.698;2023-04-20T14:35:16;100671.00;;;16.84;63.69
53659;BME280;41524;35.624;139.698;2023-04-20T14:40:12;100670.00;;;16.87;63.27
53659;BME280;41524;35.624;139.698;2023-04-20T14:45:12;100668.00;;;16.66;63.93
53659;BME280;41524;35.624;139.698;2023-04-20T14:50:16;100663.00;;;16.53;64.41
53659;BME280;41524;35.624;139.698;2023-04-20T14:55:15;100663.00;;;16.71;63.77
53659;BME280;41524;35.624;139.698;2023-04-20T15:00:23;100664.00;;;16.92;63.44
53659;BME280;41524;35.624;139.698;2023-04-20T15:05:15;100667.00;;;16.92;63.44
53659;BME280;41524;35.624;139.698;2023-04-20T15:10:16;100669.00;;;16.80;63.42
53659;BME280;41524;35.624;139.698;2023-04-20T15:15:21;100663.00;;;17.13;62.94
53659;BME280;41524;35.624;139.698;2023-04-20T15:20:13;100649.00;;;16.59;64.20
53659;BME280;41524;35.624;139.698;2023-04-20T15:25:19;100634.00;;;16.87;63.52
53659;BME280;41524;35.624;139.698;2023-04-20T15:30:16;100640.00;;;16.69;63.39
53659;BME280;41524;35.624;139.698;2023-04-20T15:35:16;100638.00;;;17.11;62.28
53659;BME280;41524;35.624;139.698;2023-04-20T15:40:11;100625.00;;;16.62;62.79
53659;BME280;41524;35.624;139.698;2023-04-20T15:45:16;100630.00;;;17.08;62.31
53659;BME280;41524;35.624;139.698;2023-04-20T15:50:17;100635.00;;;17.06;62.13
53659;BME280;41524;35.624;139.698;2023-04-20T15:55:11;100633.00;;;16.67;62.83
53659;BME280;41524;35.624;139.698;2023-04-20T16:00:16;100621.00;;;17.51;60.34
53659;BME280;41524;35.624;139.698;2023-04-20T16:05:11;100603.00;;;16.71;62.08
53659;BME280;41524;35.624;139.698;2023-04-20T16:10:12;100593.00;;;16.82;62.37
53659;BME280;41524;35.624;139.698;2023-04-20T16:15:22;100597.00;;;17.31;60.88
53659;BME280;41524;35.624;139.698;2023-04-20T16:20:12;100576.00;;;16.82;61.73
53659;BME280;41524;35.624;139.698;2023-04-20T16:25:13;100565.00;;;17.38;59.53
53659;BME280;41524;35.624;139.698;2023-04-20T16:30:15;100566.00;;;16.88;59.86
53659;BME280;41524;35.624;139.698;2023-04-20T16:35:11;100542.00;;;17.77;58.40
53659;BME280;41524;35.624;139.698;2023-04-20T16:40:11;100537.00;;;17.24;58.84
53659;BME280;41524;35.624;139.698;2023-04-20T16:45:16;100533.00;;;17.29;58.92
53659;BME280;41524;35.624;139.698;2023-04-20T16:50:11;100530.00;;;17.18;59.10
53659;BME280;41524;35.624;139.698;2023-04-20T16:55:10;100525.00;;;16.55;60.29
53659;BME280;41524;35.624;139.698;2023-04-20T17:00:18;100508.00;;;17.12;59.28
53659;BME280;41524;35.624;139.698;2023-04-20T17:05:11;100500.00;;;16.53;60.96
53659;BME280;41524;35.624;139.698;2023-04-20T17:10:12;100499.00;;;16.84;60.51
53659;BME280;41524;35.624;139.698;2023-04-20T17:15:12;100489.00;;;16.93;60.14
53659;BME280;41524;35.624;139.698;2023-04-20T17:20:11;100488.00;;;16.88;60.58
53659;BME280;41524;35.624;139.698;2023-04-20T17:25:15;100485.00;;;17.10;59.96
53659;BME280;41524;35.624;139.698;2023-04-20T17:30:11;100490.00;;;16.86;60.08
53659;BME280;41524;35.624;139.698;2023-04-20T17:35:14;100494.00;;;17.02;59.49
53659;BME280;41524;35.624;139.698;2023-04-20T17:40:11;100495.00;;;17.06;59.52
53659;BME280;41524;35.624;139.698;2023-04-20T17:45:11;100488.00;;;17.00;59.67
53659;BME280;41524;35.624;139.698;2023-04-20T17:50:11;100484.00;;;17.35;59.10
53659;BME280;41524;35.624;139.698;2023-04-20T17:55:12;100485.00;;;17.26;59.50
53659;BME280;41524;35.624;139.698;2023-04-20T18:00:17;100481.00;;;17.61;58.44
53659;BME280;41524;35.624;139.698;2023-04-20T18:05:11;100491.00;;;17.20;59.39
53659;BME280;41524;35.624;139.698;2023-04-20T18:10:15;100490.00;;;16.85;60.71
53659;BME280;41524;35.624;139.698;2023-04-20T18:15:11;100488.00;;;17.22;59.87
53659;BME280;41524;35.624;139.698;2023-04-20T18:20:11;100485.00;;;17.50;59.05
53659;BME280;41524;35.624;139.698;2023-04-20T18:25:11;100483.00;;;17.66;59.32
53659;BME280;41524;35.624;139.698;2023-04-20T18:30:14;100492.00;;;17.06;60.35
53659;BME280;41524;35.624;139.698;2023-04-20T18:35:12;100486.00;;;17.23;60.50
53659;BME280;41524;35.624;139.698;2023-04-20T18:40:17;100489.00;;;17.28;60.71
53659;BME280;41524;35.624;139.698;2023-04-20T18:45:13;100491.00;;;17.20;60.51
53659;BME280;41524;35.624;139.698;2023-04-20T18:50:11;100499.00;;;16.49;61.59
53659;BME280;41524;35.624;139.698;2023-04-20T18:55:11;100503.00;;;17.46;60.31
53659;BME280;41524;35.624;139.698;2023-04-20T19:00:12;100496.00;;;16.49;61.87
53659;BME280;41524;35.624;139.698;2023-04-20T19:05:10;100506.00;;;16.50;62.30
53659;BME280;41524;35.624;139.698;2023-04-20T19:10:11;100512.00;;;16.53;61.82
53659;BME280;41524;35.624;139.698;2023-04-20T19:15:11;100515.00;;;16.21;62.44
53659;BME280;41524;35.624;139.698;2023-04-20T19:20:11;100514.00;;;16.62;61.42
53659;BME280;41524;35.624;139.698;2023-04-20T19:25:12;100517.00;;;15.97;63.34
53659;BME280;41524;35.624;139.698;2023-04-20T19:30:10;100508.00;;;16.20;63.22
53659;BME280;41524;35.624;139.698;2023-04-20T19:35:14;100504.00;;;16.00;63.98
53659;BME280;41524;35.624;139.698;2023-04-20T19:40:10;100513.00;;;16.05;63.13
53659;BME280;41524;35.624;139.698;2023-04-20T19:45:11;100512.00;;;16.25;63.02
53659;BME280;41524;35.624;139.698;2023-04-20T19:50:21;100507.00;;;15.55;64.19
53659;BME280;41524;35.624;139.698;2023-04-20T19:55:12;100505.00;;;15.51;64.36
53659;BME280;41524;35.624;139.698;2023-04-20T20:00:17;100498.00;;;15.77;64.02
53659;BME280;41524;35.624;139.698;2023-04-20T20:05:10;100498.00;;;15.38;64.65
53659;BME280;41524;35.624;139.698;2023-04-20T20:10:15;100487.00;;;15.60;64.58
53659;BME280;41524;35.624;139.698;2023-04-20T20:15:17;100475.00;;;15.23;65.61
53659;BME280;41524;35.624;139.698;2023-04-20T20:20:12;100473.00;;;15.82;63.89
53659;BME280;41524;35.624;139.698;2023-04-20T20:25:11;100478.00;;;17.03;60.70
53659;BME280;41524;35.624;139.698;2023-04-20T20:30:11;100485.00;;;16.63;60.73
53659;BME280;41524;35.624;139.698;2023-04-20T20:35:11;100495.00;;;18.20;57.09
53659;BME280;41524;35.624;139.698;2023-04-20T20:40:12;100487.00;;;17.59;58.22
53659;BME280;41524;35.624;139.698;2023-04-20T20:45:11;100493.00;;;16.98;60.15
53659;BME280;41524;35.624;139.698;2023-04-20T20:50:18;100489.00;;;17.05;58.95
53659;BME280;41524;35.624;139.698;2023-04-20T20:55:11;100482.00;;;16.88;59.91
53659;BME280;41524;35.624;139.698;2023-04-20T21:00:14;100484.00;;;16.93;60.72
53659;BME280;41524;35.624;139.698;2023-04-20T21:05:11;100491.00;;;18.06;57.99
53659;BME280;41524;35.624;139.698;2023-04-20T21:10:10;100496.00;;;17.37;59.30
53659;BME280;41524;35.624;139.698;2023-04-20T21:15:12;100495.00;;;16.90;60.96
53659;BME280;41524;35.624;139.698;2023-04-20T21:20:11;100487.00;;;18.27;58.16
53659;BME280;41524;35.624;139.698;2023-04-20T21:25:15;100485.00;;;17.97;59.03
53659;BME280;41524;35.624;139.698;2023-04-20T21:30:17;100497.00;;;16.81;61.70
53659;BME280;41524;35.624;139.698;2023-04-20T21:35:11;100498.00;;;16.78;61.65
53659;BME280;41524;35.624;139.698;2023-04-20T21:40:12;100487.00;;;17.06;61.23
53659;BME280;41524;35.624;139.698;2023-04-20T21:45:11;100478.00;;;16.97;61.45
53659;BME280;41524;35.624;139.698;2023-04-20T21:50:12;100483.00;;;16.67;61.80
53659;BME280;41524;35.624;139.698;2023-04-20T21:55:22;100477.00;;;16.65;61.97
53659;BME280;41524;35.624;139.698;2023-04-20T22:00:12;100472.00;;;17.22;61.11
53659;BME280;41524;35.624;139.698;2023-04-20T22:05:12;100477.00;;;17.91;59.47
53659;BME280;41524;35.624;139.698;2023-04-20T22:10:10;100479.00;;;18.21;59.08
53659;BME280;41524;35.624;139.698;2023-04-20T22:15:16;100472.00;;;17.84;59.79
53659;BME280;41524;35.624;139.698;2023-04-20T22:20:13;100471.00;;;19.07;57.61
53659;BME280;41524;35.624;139.698;2023-04-20T22:25:11;100464.00;;;17.51;60.40
53659;BME280;41524;35.624;139.698;2023-04-20T22:30:17;100457.00;;;18.76;57.82
53659;BME280;41524;35.624;139.698;2023-04-20T22:35:15;100462.00;;;19.57;56.11
53659;BME280;41524;35.624;139.698;2023-04-20T22:40:12;100464.00;;;18.83;56.88
53659;BME280;41524;35.624;139.698;2023-04-20T22:45:12;100462.00;;;18.45;57.04
53659;BME280;41524;35.624;139.698;2023-04-20T22:50:11;100455.00;;;19.76;55.53
53659;BME280;41524;35.624;139.698;2023-04-20T22:55:15;100455.00;;;18.54;57.36
53659;BME280;41524;35.624;139.698;2023-04-20T23:00:17;100452.00;;;18.47;56.57
53659;BME280;41524;35.624;139.698;2023-04-20T23:05:10;100445.00;;;18.56;56.37
53659;BME280;41524;35.624;139.698;2023-04-20T23:10:15;100436.00;;;19.05;55.87
53659;BME280;41524;35.624;139.698;2023-04-20T23:15:12;100432.00;;;18.38;55.56
53659;BME280;41524;35.624;139.698;2023-04-20T23:20:22;100427.00;;;20.27;52.75
53659;BME280;41524;35.624;139.698;2023-04-20T23:25:11;100425.00;;;19.55;53.20
53659;BME280;41524;35.624;139.698;2023-04-20T23:30:16;100421.00;;;19.96;52.87
53659;BME280;41524;35.624;139.698;2023-04-20T23:35:10;100407.00;;;18.50;55.20
53659;BME280;41524;35.624;139.698;2023-04-20T23:40:11;100407.00;;;18.34;56.56
53659;BME280;41524;35.624;139.698;2023-04-20T23:45:14;100398.00;;;19.23;54.86
53659;BME280;41524;35.624;139.698;2023-04-20T23:50:10;100395.00;;;19.22;55.12
53659;BME280;41524;35.624;139.698;2023-04-20T23:55:16;100393.00;;;21.33;50.53
